Accueil
METAR-TAF:

METAR-TAF

Aéroports :

Oberpfaffenhofen, Allemagne

latitude: 48-05N, longitude: 011-17E, altitude: 600 m

Observation

Le bulletin a été fait il y a 11 minutes, à 08:20 UTC
Vent 2 kt de direction variable
Température -5°C
Humidité 100%
Pression 1020 hPa
Visibilité 10 km ou plus
pas de nuages en-dessous de 1500 mètres et pas de cumulonimbus.

METAR: EDMO 060820Z VRB02KT CAVOK M05/M05 Q1020

Heure: 09:31 (08:31 UTC)

Prévision

Le bulletin a été fait il y a 2 heures et 0 minutes, à 06:31 UTC
Prévision valable du 06 à 07 UTC au 06 à 15 UTC
Vent 3 kt de direction variable
Visibilité: 4500 m
brume
Evoluant progressivement
du 06 à 07 UTC au 06 à 09 UTC
Visibilité 10 km ou plus

TAF: EDMO 060631Z 0607/0615 VRB03KT 4500 BR NSC BECMG 0607/0609 9999

Observations et prévisions météorologiques de plus de 4000 aéroports (messages METAR et TAF).

Les stations disponibles sont représentées par des disques jaunes et rouges sur la carte.

Passer la souris dessus pour voir le nom de la station.

Cliquer dessus pour voir les observations et prévisions météorologiques.

Pour changer de carte: cliquez sur les boutons verts avec une croix noire pour zoomer, sur le bouton vert avec un tiret pour effectuer un zoom arrière, ou sur les flèches vertes pour les cartes adjacentes.


METAR-TAF: